CheckWX is a tool to help pilots better visualize weather data.  It is not intended as a substitute for an official pre-flight weather briefing.

14:09:01 UTC

EGJB TAF
Guernsey Airport
Saint Peter Port, Guernsey
TAF EGJB 251100Z 2512/2521 30008KT 9999 FEW004 TEMPO 2512/2514 5000 BR BKN003 FEW080CB

Aug-25@
12:00 UTC

Aug-25 @ 12:00 UTC

Aug-25@
21:00 UTC

Aug-25 @ 21:00 UTC

TAF EGJB 251100Z 2512/2521 30008KT 9999 FEW004
Wind
  • 300° at 8 KTS
Cloud Levels
  • Few at 400' AGL

Aug-25@
12:00 UTC

Aug-25 @ 12:00 UTC

Aug-25@
14:00 UTC

Aug-25 @ 14:00 UTC

TEMPO 2512/2514 5000 BR BKN003 FEW080CB

Expired

Conditions
Mist
Cloud Levels
  • Broken at 300' AGL
  • Few at 8,000' AGL